Time;durP1;ratioP1;P1;durP2;ratioP2;P2;SDS_P1;SDS_P2;PMS_P1;PMS_P2;Temp;Humidity;BMP_temperature;BMP_pressure;BME280_temperature;BME280_humidity;BME280_pressure;Samples;Min_cycle;Max_cycle;Signal;HPM_P1;HPM_P2
2021/01/21 00:02:04;;;;;;;0.20;0.20;;;;;;;0.45;100.00;95639.50;5033067;28;20052;-84
2021/01/21 00:05:08;;;;;;;0.30;0.30;;;;;;;0.44;100.00;95645.47;5033407;28;20052;-85
2021/01/21 00:08:12;;;;;;;0.35;0.35;;;;;;;0.48;100.00;95684.25;5032739;28;20096;-85
2021/01/21 00:11:17;;;;;;;0.30;0.30;;;;;;;0.48;100.00;95681.50;5021765;28;20053;-84
2021/01/21 00:14:23;;;;;;;0.20;0.20;;;;;;;0.50;100.00;95696.16;5021235;28;20521;-86
2021/01/21 00:17:30;;;;;;;0.10;0.10;;;;;;;0.52;100.00;95687.47;5032990;28;20052;-85
2021/01/21 00:20:35;;;;;;;0.30;0.30;;;;;;;0.51;100.00;95680.50;5033336;28;20049;-85
2021/01/21 00:23:41;;;;;;;0.30;0.30;;;;;;;0.56;100.00;95696.16;5041527;28;20044;-85
2021/01/21 00:26:45;;;;;;;0.20;0.20;;;;;;;0.56;100.00;95693.41;5053409;28;20048;-84
2021/01/21 00:29:48;;;;;;;0.30;0.30;;;;;;;0.55;100.00;95694.66;5054185;28;20064;-85
2021/01/21 00:32:52;;;;;;;0.25;0.25;;;;;;;0.57;100.00;95697.63;5056560;28;20064;-84
2021/01/21 00:35:56;;;;;;;0.30;0.30;;;;;;;0.53;100.00;95694.41;5056456;28;20044;-85
2021/01/21 02:47:25;;;;;;;0.20;0.20;;;;;;;0.87;100.00;95985.16;5033583;28;20068;-75
2021/01/21 02:50:29;;;;;;;0.10;0.10;;;;;;;0.84;100.00;95992.38;5033044;28;20056;-75
2021/01/21 02:53:35;;;;;;;0.17;0.17;;;;;;;0.86;100.00;96000.09;5032396;28;20056;-75
2021/01/21 02:56:41;;;;;;;0.20;0.20;;;;;;;0.88;100.00;96009.28;5032723;28;20053;-75
2021/01/21 02:59:48;;;;;;;0.20;0.20;;;;;;;0.86;100.00;96014.53;5033019;28;20437;-74
2021/01/21 03:02:56;;;;;;;0.20;0.20;;;;;;;0.83;100.00;96020.25;5032493;28;20060;-74
2021/01/21 03:06:02;;;;;;;0.10;0.10;;;;;;;0.86;100.00;96030.97;5032647;28;20052;-75
2021/01/21 03:09:06;;;;;;;0.20;0.20;;;;;;;0.86;100.00;96041.16;5033006;28;20064;-75
2021/01/21 03:12:24;;;;;;;0.20;0.20;;;;;;;0.79;100.00;96034.22;5032966;28;20053;-75
2021/01/21 03:15:27;;;;;;;0.20;0.20;;;;;;;0.75;100.00;96039.22;5031781;28;20068;-75
2021/01/21 03:18:31;;;;;;;0.30;0.30;;;;;;;0.77;100.00;96037.47;5033013;28;20053;-75
2021/01/21 03:21:35;;;;;;;0.20;0.20;;;;;;;0.76;100.00;96043.41;5032261;28;20056;-76
2021/01/21 03:24:38;;;;;;;0.20;0.20;;;;;;;0.78;100.00;96066.31;5032280;28;20484;-75
2021/01/21 03:27:42;;;;;;;0.22;0.22;;;;;;;0.73;100.00;96067.09;5032201;28;20409;-75
2021/01/21 03:30:45;;;;;;;0.20;0.20;;;;;;;0.67;100.00;96071.09;5032415;28;20048;-75
2021/01/21 03:33:49;;;;;;;0.17;0.17;;;;;;;0.67;100.00;96068.38;5032313;28;20060;-74
2021/01/21 03:36:52;;;;;;;0.20;0.20;;;;;;;0.72;100.00;96084.00;5032152;28;20048;-75
2021/01/21 03:39:55;;;;;;;0.10;0.10;;;;;;;0.76;100.00;96095.44;5032421;28;20064;-75
2021/01/21 03:42:59;;;;;;;0.20;0.20;;;;;;;0.81;100.00;96091.97;5032408;28;20048;-75
2021/01/21 03:46:02;;;;;;;0.20;0.20;;;;;;;0.89;100.00;96092.94;5031837;28;20504;-75
2021/01/21 03:49:06;;;;;;;0.20;0.20;;;;;;;0.99;100.00;96085.94;5030697;28;20056;-75
2021/01/21 03:52:09;;;;;;;0.20;0.20;;;;;;;1.02;100.00;96095.16;5030972;28;20500;-75
2021/01/21 03:55:12;;;;;;;0.20;0.20;;;;;;;0.91;100.00;96101.38;5031999;28;20072;-75
2021/01/21 03:58:16;;;;;;;0.30;0.30;;;;;;;0.81;100.00;96102.16;5032156;28;20421;-75
2021/01/21 04:01:19;;;;;;;0.22;0.22;;;;;;;0.74;100.00;96108.91;5030926;28;20512;-76
2021/01/21 04:04:22;;;;;;;0.30;0.30;;;;;;;0.68;100.00;96114.41;5031711;28;20072;-75
2021/01/21 04:07:26;;;;;;;0.20;0.20;;;;;;;0.66;100.00;96114.16;5031702;28;20053;-75
2021/01/21 04:10:29;;;;;;;0.17;0.17;;;;;;;0.65;100.00;96120.84;5030975;28;20044;-75
2021/01/21 04:13:32;;;;;;;0.30;0.30;;;;;;;0.65;100.00;96123.59;5031794;28;20056;-77
2021/01/21 04:16:36;;;;;;;0.30;0.30;;;;;;;0.70;100.00;96130.31;5032127;28;20060;-76
2021/01/21 04:19:40;;;;;;;0.30;0.30;;;;;;;0.77;100.00;96125.09;5031743;28;20053;-73
2021/01/21 04:22:43;;;;;;;0.20;0.20;;;;;;;0.78;100.00;96143.00;5030993;28;20057;-75
2021/01/21 04:25:46;;;;;;;0.10;0.10;;;;;;;0.73;100.00;96130.06;5031882;28;20496;-74
2021/01/21 04:28:49;;;;;;;0.20;0.20;;;;;;;0.69;100.00;96139.78;5032150;28;20068;-75
2021/01/21 04:31:53;;;;;;;0.10;0.10;;;;;;;0.59;100.00;96147.50;5032155;28;20061;-74
2021/01/21 04:34:56;;;;;;;0.30;0.30;;;;;;;0.58;100.00;96150.75;5031807;28;20049;-74
2021/01/21 04:38:00;;;;;;;0.30;0.30;;;;;;;0.51;100.00;96153.97;5031534;28;20402;-74
2021/01/21 04:41:03;;;;;;;0.25;0.25;;;;;;;0.45;100.00;96172.41;5030754;28;20073;-73
2021/01/21 04:44:06;;;;;;;0.10;0.10;;;;;;;0.45;100.00;96170.41;5031393;28;20049;-75
2021/01/21 04:47:11;;;;;;;0.22;0.22;;;;;;;0.46;100.00;96171.13;5031854;28;20061;-74
2021/01/21 04:50:14;;;;;;;0.20;0.20;;;;;;;0.39;100.00;96166.19;5031781;28;20048;-75
2021/01/21 04:53:24;;;;;;;0.22;0.22;;;;;;;0.39;100.00;96168.91;5031887;28;20056;-75
2021/01/21 04:56:34;;;;;;;0.20;0.20;;;;;;;0.32;100.00;96177.63;5032052;28;20044;-74
2021/01/21 04:59:38;;;;;;;0.30;0.30;;;;;;;0.23;100.00;96172.38;5031439;28;20048;-75
2021/01/21 05:02:43;;;;;;;0.20;0.20;;;;;;;0.17;100.00;96174.38;5031597;28;20052;-74
2021/01/21 05:05:46;;;;;;;0.30;0.30;;;;;;;0.15;100.00;96179.59;5031596;28;20064;-74
2021/01/21 05:08:51;;;;;;;0.10;0.10;;;;;;;0.17;100.00;96182.56;5031728;28;20052;-75
2021/01/21 05:11:57;;;;;;;0.30;0.30;;;;;;;0.17;100.00;96183.31;5030884;28;20080;-74
2021/01/21 05:15:02;;;;;;;0.30;0.30;;;;;;;0.14;100.00;96186.28;5031038;28;20052;-75
2021/01/21 05:18:06;;;;;;;0.30;0.30;;;;;;;0.09;100.00;96192.50;5035282;28;20044;-75
2021/01/21 05:21:10;;;;;;;0.10;0.10;;;;;;;0.08;100.00;96193.75;5034660;28;20056;-75
2021/01/21 05:24:13;;;;;;;0.30;0.30;;;;;;;0.20;100.00;96203.44;5034827;28;20056;-75
2021/01/21 05:27:19;;;;;;;0.30;0.30;;;;;;;0.28;100.00;96193.53;5035215;28;20516;-75
2021/01/21 05:30:27;;;;;;;0.30;0.30;;;;;;;0.28;100.00;96193.53;5035085;28;20064;-75
2021/01/21 05:33:30;;;;;;;0.20;0.20;;;;;;;0.31;100.00;96189.78;5035087;28;20045;-75
2021/01/21 05:36:38;;;;;;;0.17;0.17;;;;;;;0.35;100.00;96193.78;5034728;28;20444;-75
2021/01/21 05:39:45;;;;;;;0.20;0.20;;;;;;;0.41;100.00;96215.69;5034323;28;20052;-75
2021/01/21 05:42:54;;;;;;;0.20;0.20;;;;;;;0.56;100.00;96207.97;5034679;28;20401;-75
2021/01/21 05:45:59;;;;;;;0.20;0.20;;;;;;;0.63;100.00;96204.72;5034252;28;20049;-75
2021/01/21 05:49:03;;;;;;;0.20;0.20;;;;;;;0.65;100.00;96208.47;5034475;28;20053;-75
2021/01/21 05:52:07;;;;;;;0.10;0.10;;;;;;;0.75;100.00;96203.50;5034536;28;20413;-75
2021/01/21 05:55:11;;;;;;;0.20;0.20;;;;;;;0.83;100.00;96209.19;5034555;28;20052;-76
2021/01/21 05:58:15;;;;;;;0.20;0.20;;;;;;;0.94;100.00;96209.94;5034236;28;20403;-75
2021/01/21 06:01:23;;;;;;;0.30;0.30;;;;;;;0.94;100.00;96215.41;5034028;28;20057;-75
2021/01/21 06:04:28;;;;;;;0.20;0.20;;;;;;;0.98;100.00;96204.97;5033952;28;20068;-75
2021/01/21 06:07:32;;;;;;;0.20;0.20;;;;;;;1.03;100.00;96204.22;5033714;28;20061;-75
2021/01/21 06:10:36;;;;;;;0.20;0.20;;;;;;;1.07;100.00;96196.47;5033657;28;20048;-75
2021/01/21 06:13:44;;;;;;;0.20;0.20;;;;;;;1.05;100.00;96198.97;5033844;28;20052;-76
2021/01/21 06:16:48;;;;;;;0.20;0.20;;;;;;;1.07;100.00;96218.41;5033795;28;20052;-75
2021/01/21 06:19:52;;;;;;;0.15;0.15;;;;;;;1.09;100.00;96209.66;5033490;28;20068;-75
2021/01/21 06:22:57;;;;;;;0.20;0.20;;;;;;;1.14;100.00;96217.13;5033416;28;20045;-75
2021/01/21 06:26:01;;;;;;;0.20;0.20;;;;;;;1.09;100.00;96210.41;5033566;28;20514;-75
2021/01/21 06:29:06;;;;;;;0.25;0.25;;;;;;;1.13;100.00;96216.38;5033600;28;20095;-75
2021/01/21 06:32:12;;;;;;;0.20;0.20;;;;;;;1.17;100.00;96216.88;5033354;28;20113;-76
2021/01/21 06:35:19;;;;;;;0.20;0.20;;;;;;;1.15;100.00;96213.88;5032786;28;20104;-76
2021/01/21 06:38:28;;;;;;;0.20;0.20;;;;;;;1.15;100.00;96213.88;5033430;28;20048;-75
2021/01/21 06:41:36;;;;;;;0.10;0.10;;;;;;;1.18;100.00;96223.88;5033370;28;20068;-76
2021/01/21 06:44:39;;;;;;;0.20;0.20;;;;;;;1.21;100.00;96217.38;5033255;28;20113;-76
2021/01/21 06:47:42;;;;;;;0.10;0.10;;;;;;;1.22;100.00;96218.88;5033429;28;20496;-76
2021/01/21 06:50:46;;;;;;;0.10;0.10;;;;;;;1.25;100.00;96222.59;5033197;28;20493;-76
2021/01/21 06:53:54;;;;;;;0.10;0.10;;;;;;;1.28;100.00;96227.06;5033429;28;20045;-76
2021/01/21 06:56:57;;;;;;;0.10;0.10;;;;;;;1.31;100.00;96226.06;5032901;28;20052;-75
2021/01/21 07:00:18;;;;;;;0.10;0.10;;;;;;;1.31;100.00;96237.78;5033270;28;20052;-75
2021/01/21 07:03:29;;;;;;;0.10;0.10;;;;;;;1.27;100.00;96229.06;5032979;28;20052;-75
2021/01/21 07:06:51;;;;;;;0.10;0.10;;;;;;;1.29;100.00;96229.31;5033273;28;20552;-75
2021/01/21 07:09:58;;;;;;;0.10;0.10;;;;;;;1.31;100.00;96224.09;5032988;28;20488;-75
2021/01/21 07:13:04;;;;;;;0.28;0.28;;;;;;;1.35;100.00;96230.06;5032251;28;20076;-75
2021/01/21 07:16:09;;;;;;;0.20;0.20;;;;;;;1.34;100.00;96223.06;5013046;28;20387;-76
2021/01/21 07:19:13;;;;;;;0.20;0.20;;;;;;;1.37;100.00;96229.53;5013045;28;20501;-75
2021/01/21 07:22:20;;;;;;;0.10;0.10;;;;;;;1.41;100.00;96230.78;5011653;28;20057;-76
2021/01/21 07:25:30;;;;;;;0.20;0.20;;;;;;;1.45;100.00;96236.75;5024583;28;20504;-76
2021/01/21 07:28:51;;;;;;;0.10;0.10;;;;;;;1.47;100.00;96234.25;5013641;28;20053;-76
2021/01/21 07:31:55;;;;;;;0.10;0.10;;;;;;;1.51;100.00;96226.53;5013109;28;20060;-76
2021/01/21 07:34:59;;;;;;;0.20;0.20;;;;;;;1.50;100.00;96222.28;5012815;28;20061;-77
2021/01/21 07:38:02;;;;;;;0.10;0.10;;;;;;;1.47;100.00;96215.06;5022872;28;20056;-76
2021/01/21 07:41:06;;;;;;;0.15;0.15;;;;;;;1.43;100.00;96228.28;5012343;28;20060;-76
2021/01/21 07:44:12;;;;;;;0.20;0.20;;;;;;;1.39;100.00;96238.75;5012445;28;20053;-75
2021/01/21 07:47:27;;;;;;;0.10;0.10;;;;;;;1.35;100.00;96238.28;5012663;28;20049;-75
2021/01/21 07:50:35;;;;;;;0.20;0.20;;;;;;;1.29;100.00;96245.75;5012496;28;20072;-76
2021/01/21 07:53:38;;;;;;;0.10;0.10;;;;;;;1.27;100.00;96245.53;5011980;28;20056;-75
2021/01/21 07:56:42;;;;;;;0.10;0.10;;;;;;;1.24;100.00;96252.00;5012221;28;20053;-75
2021/01/21 07:59:59;;;;;;;0.10;0.10;;;;;;;1.26;100.00;96257.72;5011732;28;20504;-75
2021/01/21 08:03:02;;;;;;;0.20;0.20;;;;;;;1.24;100.00;96253.97;5015304;28;20053;-76
2021/01/21 08:06:12;;;;;;;0.20;0.20;;;;;;;1.23;100.00;96261.47;5012153;28;20065;-76
2021/01/21 08:09:20;;;;;;;0.10;0.10;;;;;;;1.30;100.00;96271.91;5012300;28;20060;-75
2021/01/21 08:12:25;;;;;;;0.20;0.20;;;;;;;1.33;100.00;96268.19;5012733;28;20060;-76
2021/01/21 08:15:29;;;;;;;0.20;0.20;;;;;;;1.30;100.00;96274.66;5028866;28;20052;-75
2021/01/21 08:18:34;;;;;;;0.10;0.10;;;;;;;1.33;100.00;96289.34;5032081;28;20056;-76
2021/01/21 08:21:38;;;;;;;0.20;0.20;;;;;;;1.36;100.00;96296.59;5031422;28;20056;-76
2021/01/21 08:25:01;;;;;;;0.10;0.10;;;;;;;1.38;100.00;96302.31;5031989;28;20048;-76
2021/01/21 08:28:05;;;;;;;0.10;0.10;;;;;;;1.44;100.00;96295.56;5032408;28;20056;-77
2021/01/21 08:31:08;;;;;;;0.20;0.20;;;;;;;1.50;100.00;96303.78;5031578;28;20052;-76
2021/01/21 08:34:24;;;;;;;0.10;0.10;;;;;;;1.48;100.00;96293.31;5031925;28;20061;-76
2021/01/21 08:37:28;;;;;;;0.20;0.20;;;;;;;1.49;100.00;96292.06;5031748;28;20052;-80
2021/01/21 08:40:32;;;;;;;0.20;0.20;;;;;;;1.51;100.00;96300.56;5031922;28;20504;-79
2021/01/21 08:43:41;;;;;;;0.15;0.15;;;;;;;1.53;100.00;96303.53;5031511;28;20072;-76
2021/01/21 08:47:01;;;;;;;0.10;0.10;;;;;;;1.57;100.00;96306.00;5021734;28;20369;-77
2021/01/21 08:50:05;;;;;;;0.20;0.20;;;;;;;1.59;100.00;96311.75;5031498;28;20575;-76
2021/01/21 08:53:10;;;;;;;0.13;0.13;;;;;;;1.62;100.00;96307.25;5035106;28;20048;-76
2021/01/21 08:56:14;;;;;;;0.10;0.10;;;;;;;1.72;100.00;96313.94;5035383;28;20056;-76
2021/01/21 08:59:28;;;;;;;0.10;0.10;;;;;;;1.77;100.00;96313.19;5035365;28;20759;-76
2021/01/21 09:02:42;;;;;;;0.20;0.20;;;;;;;1.81;100.00;96321.91;5025196;28;20409;-76
2021/01/21 09:05:56;;;;;;;0.20;0.20;;;;;;;1.87;100.00;96320.66;5043186;28;20116;-76
2021/01/21 09:09:00;;;;;;;0.13;0.13;;;;;;;1.89;100.00;96317.38;5034569;28;20052;-77
2021/01/21 09:12:18;;;;;;;0.15;0.15;;;;;;;1.82;100.00;96312.44;5035175;28;20061;-76
2021/01/21 09:15:21;;;;;;;0.20;0.20;;;;;;;1.69;100.00;96298.53;5034626;28;20508;-77
2021/01/21 09:18:44;;;;;;;0.10;0.10;;;;;;;1.60;100.00;96301.53;5034697;28;20052;-77
2021/01/21 09:22:03;;;;;;;0.20;0.20;;;;;;;1.53;100.00;96309.03;5034564;28;20056;-77
2021/01/21 09:25:08;;;;;;;0.10;0.10;;;;;;;1.43;100.00;96316.00;5034712;28;20044;-77
2021/01/21 09:28:13;;;;;;;0.10;0.10;;;;;;;1.39;100.00;96318.25;5034733;28;20052;-76
2021/01/21 09:31:18;;;;;;;0.20;0.20;;;;;;;1.36;100.00;96316.53;5034477;28;20072;-77
2021/01/21 09:34:22;;;;;;;0.10;0.10;;;;;;;1.42;100.00;96322.75;5030496;28;20048;-77
2021/01/21 09:37:27;;;;;;;0.10;0.10;;;;;;;1.47;100.00;96324.72;5025972;28;20109;-77
2021/01/21 09:40:33;;;;;;;0.10;0.10;;;;;;;1.56;100.00;96328.47;5019902;28;20053;-77
2021/01/21 09:43:38;;;;;;;0.10;0.10;;;;;;;1.57;100.00;96327.19;5014867;28;20049;-79
2021/01/21 09:46:42;;;;;;;0.15;0.15;;;;;;;1.63;100.00;96333.41;5014674;28;20068;-78
2021/01/21 09:49:45;;;;;;;0.17;0.17;;;;;;;1.64;100.00;96329.44;5014666;28;20149;-80
2021/01/21 09:52:49;;;;;;;0.10;0.10;;;;;;;1.68;100.00;96330.66;5014506;28;20040;-79
2021/01/21 09:55:55;;;;;;;0.13;0.13;;;;;;;1.67;100.00;96331.19;5014650;28;20045;-77
2021/01/21 09:58:59;;;;;;;0.20;0.20;;;;;;;1.70;100.00;96333.66;5014214;28;20060;-79
2021/01/21 10:02:04;;;;;;;0.20;0.20;;;;;;;1.69;100.00;96339.66;5013134;28;20060;-81
2021/01/21 10:05:08;;;;;;;0.10;0.10;;;;;;;1.78;100.00;96337.38;5013665;28;20044;-79
2021/01/21 10:08:11;;;;;;;0.10;0.10;;;;;;;1.82;100.00;96351.56;5014172;28;20068;-78
2021/01/21 10:11:15;;;;;;;0.17;0.17;;;;;;;1.86;100.00;96359.56;5014221;28;20073;-79
2021/01/21 10:14:19;;;;;;;0.20;0.20;;;;;;;1.89;100.00;96350.31;5023668;28;20044;-76
2021/01/21 10:17:23;;;;;;;0.10;0.10;;;;;;;1.88;100.00;96354.31;5033673;28;20052;-76
2021/01/21 10:20:26;;;;;;;0.10;0.10;;;;;;;1.88;100.00;96352.34;5033566;28;20056;-76
2021/01/21 10:23:30;;;;;;;0.17;0.17;;;;;;;1.95;100.00;96371.00;5033684;28;20524;-77
2021/01/21 10:26:34;;;;;;;0.10;0.10;;;;;;;1.99;100.00;96365.28;5033560;28;20052;-78
2021/01/21 10:29:37;;;;;;;0.20;0.20;;;;;;;2.04;100.00;96367.22;5033738;28;20053;-77
2021/01/21 10:32:40;;;;;;;0.10;0.10;;;;;;;2.01;100.00;96374.50;5033724;28;20101;-77
2021/01/21 10:35:44;;;;;;;0.10;0.10;;;;;;;2.14;100.00;96377.44;5033382;28;20052;-81
2021/01/21 10:38:47;;;;;;;0.20;0.20;;;;;;;2.25;100.00;96385.63;5033596;28;20056;-81
2021/01/21 10:41:50;;;;;;;0.20;0.20;;;;;;;2.50;100.00;96389.28;5032575;28;20057;-80
2021/01/21 10:44:54;;;;;;;0.13;0.13;;;;;;;2.81;100.00;96386.16;5033569;28;20057;-81
2021/01/21 10:47:57;;;;;;;0.10;0.10;;;;;;;3.13;100.00;96391.19;5033065;28;20052;-81
2021/01/21 10:51:00;;;;;;;0.10;0.10;;;;;;;3.34;100.00;96395.81;5033406;28;20060;-77
2021/01/21 10:54:03;;;;;;;0.20;0.20;;;;;;;3.56;100.00;96389.38;5032971;28;20131;-78
2021/01/21 10:57:07;;;;;;;0.10;0.10;;;;;;;3.66;100.00;96399.53;5032835;28;20064;-79
2021/01/21 11:00:11;;;;;;;0.10;0.10;;;;;;;3.59;100.00;96405.63;5032966;28;20052;-78
2021/01/21 11:03:15;;;;;;;0.10;0.10;;;;;;;3.50;100.00;96410.69;5033127;28;20104;-80
2021/01/21 11:06:18;;;;;;;0.10;0.00;;;;;;;3.34;100.00;96408.78;5032023;28;20072;-80
2021/01/21 11:09:32;;;;;;;0.10;0.10;;;;;;;3.22;100.00;96407.38;5032883;28;20052;-81
2021/01/21 11:12:36;;;;;;;0.10;0.10;;;;;;;3.18;100.00;96409.66;5031892;28;20068;-80
2021/01/21 11:15:39;;;;;;;0.10;0.10;;;;;;;3.13;100.00;96407.69;5032703;28;20068;-79
2021/01/21 11:18:42;;;;;;;0.10;0.10;;;;;;;3.14;100.00;96403.69;5032389;28;20048;-80
2021/01/21 11:21:46;;;;;;;0.10;0.10;;;;;;;3.10;100.00;96414.22;5031534;28;20072;-80
2021/01/21 11:24:49;;;;;;;0.10;0.10;;;;;;;3.06;100.00;96415.22;5032162;28;20068;-80
2021/01/21 11:27:53;;;;;;;0.10;0.10;;;;;;;3.08;100.00;96401.72;5032268;28;20113;-80
2021/01/21 11:30:56;;;;;;;0.10;0.10;;;;;;;3.10;100.00;96422.47;5032367;28;20068;-80
2021/01/21 11:34:00;;;;;;;0.20;0.20;;;;;;;3.03;100.00;96413.50;5032189;28;20056;-80
2021/01/21 11:37:03;;;;;;;0.10;0.10;;;;;;;3.01;100.00;96427.00;5032118;28;20052;-80
2021/01/21 11:40:07;;;;;;;0.10;0.10;;;;;;;2.99;100.00;96432.25;5032287;28;20402;-79
2021/01/21 11:43:11;;;;;;;0.10;0.10;;;;;;;2.95;100.00;96434.53;5031661;28;20052;-77
2021/01/21 11:46:14;;;;;;;0.10;0.10;;;;;;;2.95;100.00;96437.28;5031928;28;20045;-78
2021/01/21 11:49:17;;;;;;;0.10;0.10;;;;;;;3.15;100.00;96449.16;5031822;28;20056;-77
2021/01/21 11:52:21;;;;;;;0.10;0.10;;;;;;;3.15;100.00;96454.66;5033154;28;20057;-78
2021/01/21 11:55:24;;;;;;;0.10;0.10;;;;;;;3.11;100.00;96465.19;5035649;28;20056;-78
2021/01/21 11:58:28;;;;;;;0.20;0.20;;;;;;;3.05;100.00;96468.69;5035652;28;20053;-76
2021/01/21 12:01:31;;;;;;;0.10;0.10;;;;;;;3.07;100.00;96466.19;5031481;28;20068;-76
2021/01/21 12:04:35;;;;;;;0.10;0.10;;;;;;;3.13;100.00;96462.66;5031548;28;20048;-75
2021/01/21 12:07:38;;;;;;;0.20;0.20;;;;;;;3.18;100.00;96465.41;5031266;28;20056;-75
2021/01/21 12:10:42;;;;;;;0.10;0.10;;;;;;;3.34;100.00;96477.53;5031584;28;20053;-78
2021/01/21 12:13:45;;;;;;;0.10;0.10;;;;;;;3.57;100.00;96479.63;5028340;28;20064;-77
2021/01/21 12:16:48;;;;;;;0.20;0.20;;;;;;;3.76;100.00;96475.03;5012170;28;20053;-75
2021/01/21 12:19:52;;;;;;;0.10;0.10;;;;;;;3.79;100.00;96484.22;5023802;28;20060;-77
2021/01/21 12:22:55;;;;;;;0.10;0.10;;;;;;;3.90;100.00;96473.16;5030589;28;20504;-77
2021/01/21 12:26:01;;;;;;;0.10;0.10;;;;;;;4.02;100.00;96474.56;5035736;28;20056;-76
2021/01/21 12:29:05;;;;;;;0.10;0.00;;;;;;;4.12;100.00;96472.97;5038577;28;20052;-77
2021/01/21 12:32:08;;;;;;;0.10;0.10;;;;;;;4.19;100.00;96468.91;5035278;28;20056;-76
2021/01/21 12:35:12;;;;;;;0.10;0.10;;;;;;;4.20;100.00;96486.91;5035869;28;20048;-78
2021/01/21 12:38:16;;;;;;;0.10;0.10;;;;;;;4.26;100.00;96476.59;5037820;28;20052;-77
2021/01/21 12:41:19;;;;;;;0.10;0.10;;;;;;;4.38;100.00;96481.47;5037049;28;20469;-75
2021/01/21 12:44:23;;;;;;;0.10;0.10;;;;;;;4.49;100.00;96481.38;5041497;28;20056;-77
2021/01/21 12:47:26;;;;;;;0.10;0.10;;;;;;;4.62;100.00;96472.47;5038137;28;20527;-77
2021/01/21 12:50:30;;;;;;;0.10;0.10;;;;;;;4.62;100.00;96469.69;5034859;28;20049;-78
2021/01/21 12:53:33;;;;;;;0.10;0.10;;;;;;;4.68;100.00;96477.94;5035071;28;20052;-75
2021/01/21 12:56:40;;;;;;;0.10;0.08;;;;;;;4.45;100.00;96478.16;5033277;28;20076;-77
2021/01/21 12:59:47;;;;;;;0.10;0.10;;;;;;;4.28;100.00;96474.81;5035020;28;20056;-76
2021/01/21 13:02:51;;;;;;;0.10;0.10;;;;;;;4.21;100.00;96475.38;5035069;28;20397;-82
2021/01/21 13:05:54;;;;;;;0.10;0.10;;;;;;;4.22;100.00;96476.84;5034834;28;20409;-74
2021/01/21 13:08:58;;;;;;;0.10;0.10;;;;;;;4.29;100.00;96476.31;5034763;28;20116;-76
2021/01/21 13:12:03;;;;;;;0.10;0.10;;;;;;;4.39;100.00;96480.22;5035231;28;20056;-76
2021/01/21 13:15:07;;;;;;;0.10;0.10;;;;;;;4.55;100.00;96487.56;5034781;28;20527;-74
2021/01/21 13:18:10;;;;;;;0.10;0.10;;;;;;;4.66;100.00;96474.94;5035258;28;20068;-83
2021/01/21 13:21:14;;;;;;;0.10;0.00;;;;;;;4.87;100.00;96489.72;5033730;28;20053;-76
2021/01/21 13:24:17;;;;;;;0.10;0.10;;;;;;;4.95;100.00;96487.88;5034871;28;20057;-76
2021/01/21 13:27:21;;;;;;;0.10;0.10;;;;;;;4.90;100.00;96485.91;5034998;28;20049;-77
2021/01/21 13:30:25;;;;;;;0.10;0.00;;;;;;;4.81;100.00;96484.25;5033929;28;20048;-77
2021/01/21 13:33:28;;;;;;;0.10;0.10;;;;;;;4.72;100.00;96494.91;5035240;28;20512;-77
2021/01/21 13:36:32;;;;;;;0.10;0.00;;;;;;;4.66;100.00;96497.00;5034482;28;20057;-77
2021/01/21 13:39:35;;;;;;;0.10;0.10;;;;;;;4.59;100.00;96501.78;5033586;28;20064;-78
2021/01/21 13:42:39;;;;;;;0.10;0.10;;;;;;;4.54;100.00;96504.63;5033628;28;20060;-75
2021/01/21 13:45:42;;;;;;;0.10;0.10;;;;;;;4.49;100.00;96506.16;5034518;28;20053;-80
2021/01/21 13:48:46;;;;;;;0.10;0.00;;;;;;;4.47;100.00;96514.19;5034051;28;20425;-78
2021/01/21 13:51:49;;;;;;;0.10;0.10;;;;;;;4.43;100.00;96510.22;5034393;28;20052;-77
2021/01/21 13:54:52;;;;;;;0.10;0.10;;;;;;;4.41;100.00;96508.00;5034398;28;20053;-77
2021/01/21 13:57:56;;;;;;;0.10;0.10;;;;;;;4.42;100.00;96517.75;5033864;28;20053;-77
2021/01/21 14:01:00;;;;;;;0.10;0.00;;;;;;;4.42;100.00;96512.22;5034097;28;20049;-77
2021/01/21 14:04:04;;;;;;;0.10;0.00;;;;;;;4.42;100.00;96517.75;5033540;28;20048;-77
2021/01/21 14:07:08;;;;;;;0.10;0.10;;;;;;;4.42;100.00;96520.50;5032675;28;20052;-78
2021/01/21 14:10:12;;;;;;;0.10;0.10;;;;;;;4.38;100.00;96522.78;5033737;28;20048;-77
2021/01/21 14:13:16;;;;;;;0.10;0.10;;;;;;;4.33;100.00;96537.34;5033368;28;20429;-77
2021/01/21 14:16:20;;;;;;;0.10;0.10;;;;;;;4.26;100.00;96537.94;5033086;28;20056;-77
2021/01/21 14:19:24;;;;;;;0.10;0.10;;;;;;;4.24;100.00;96539.72;5033407;28;20068;-78
2021/01/21 14:22:27;;;;;;;0.10;0.10;;;;;;;4.22;100.00;96542.94;5033168;28;20682;-77
2021/01/21 14:25:30;;;;;;;0.10;0.00;;;;;;;4.14;100.00;96536.53;5033032;28;20508;-77
2021/01/21 14:28:34;;;;;;;0.10;0.10;;;;;;;4.17;100.00;96541.00;5033211;28;20057;-77
2021/01/21 14:31:37;;;;;;;0.10;0.10;;;;;;;4.15;100.00;96532.53;5033047;28;20044;-77
2021/01/21 14:34:40;;;;;;;0.10;0.10;;;;;;;4.10;100.00;96536.06;5033086;28;20049;-77
2021/01/21 14:37:44;;;;;;;0.10;0.10;;;;;;;4.08;100.00;96541.31;5032724;28;20052;-77
2021/01/21 14:40:47;;;;;;;0.10;0.10;;;;;;;4.08;100.00;96543.31;5032916;28;20044;-77
2021/01/21 14:43:51;;;;;;;0.10;0.10;;;;;;;4.08;100.00;96549.59;5032539;28;20048;-77
2021/01/21 14:46:54;;;;;;;0.10;0.10;;;;;;;4.08;100.00;96548.84;5032722;28;20512;-76
2021/01/21 14:49:58;;;;;;;0.13;0.13;;;;;;;4.08;100.00;96544.09;5034234;28;20053;-77
2021/01/21 14:53:01;;;;;;;0.10;0.10;;;;;;;4.09;100.00;96548.34;5032295;28;20057;-77
2021/01/21 14:56:05;;;;;;;0.10;0.10;;;;;;;4.08;100.00;96554.34;5032420;28;20048;-77
2021/01/21 14:59:09;;;;;;;0.10;0.00;;;;;;;4.12;100.00;96565.81;5032886;28;20072;-77
2021/01/21 15:02:12;;;;;;;0.10;0.00;;;;;;;4.15;100.00;96567.56;5032164;28;20056;-77
2021/01/21 15:05:16;;;;;;;0.10;0.10;;;;;;;4.12;100.00;96566.56;5032166;28;20044;-77
2021/01/21 15:08:19;;;;;;;0.10;0.10;;;;;;;4.14;100.00;96569.56;5031688;28;20417;-77
2021/01/21 15:11:22;;;;;;;0.10;0.10;;;;;;;4.14;100.00;96572.31;5032234;28;20060;-78
2021/01/21 15:14:26;;;;;;;0.10;0.10;;;;;;;4.11;100.00;96573.34;5032197;28;20068;-78
2021/01/21 15:17:29;;;;;;;0.10;0.10;;;;;;;4.09;100.00;96575.13;5032311;28;20056;-78
2021/01/21 15:20:33;;;;;;;0.10;0.10;;;;;;;4.08;100.00;96577.13;5031957;28;20509;-77
2021/01/21 15:23:38;;;;;;;0.10;0.10;;;;;;;4.10;100.00;96563.59;5032239;28;20056;-78
2021/01/21 15:26:41;;;;;;;0.10;0.10;;;;;;;4.13;100.00;96579.09;5031974;28;20108;-78
2021/01/21 15:29:45;;;;;;;0.10;0.05;;;;;;;4.11;100.00;96580.88;5030986;28;20405;-78
2021/01/21 15:32:48;;;;;;;0.10;0.10;;;;;;;4.04;100.00;96576.66;5017986;28;20045;-76
2021/01/21 15:35:52;;;;;;;0.10;0.10;;;;;;;3.97;100.00;96577.19;5032097;28;20057;-78
2021/01/21 15:38:55;;;;;;;0.10;0.10;;;;;;;3.91;100.00;96570.97;5031701;28;20072;-78
2021/01/21 15:41:59;;;;;;;0.10;0.10;;;;;;;3.93;100.00;96579.47;5031380;28;20405;-78
2021/01/21 15:45:03;;;;;;;0.10;0.10;;;;;;;3.93;100.00;96582.22;5030993;28;20361;-79
2021/01/21 15:48:09;;;;;;;0.10;0.10;;;;;;;3.87;100.00;96578.03;5032448;28;20057;-78
2021/01/21 15:51:13;;;;;;;0.10;0.10;;;;;;;3.84;100.00;96585.28;5032025;28;20053;-79
2021/01/21 15:54:17;;;;;;;0.10;0.10;;;;;;;3.81;100.00;96586.31;5031437;28;20057;-79
2021/01/21 15:57:20;;;;;;;0.10;0.00;;;;;;;3.78;100.00;96587.31;5031853;28;20064;-78
2021/01/21 16:00:25;;;;;;;0.10;0.10;;;;;;;3.74;100.00;96589.59;5022901;28;20049;-77
2021/01/21 16:03:29;;;;;;;0.10;0.10;;;;;;;3.63;100.00;96582.16;5011639;28;20072;-78
2021/01/21 16:06:32;;;;;;;0.10;0.10;;;;;;;3.52;100.00;96586.97;5029155;28;20061;-77
2021/01/21 16:09:35;;;;;;;0.10;0.10;;;;;;;3.33;100.00;96586.81;5027442;28;20531;-77
2021/01/21 16:12:39;;;;;;;0.10;0.10;;;;;;;3.12;100.00;96593.88;5030360;28;20052;-77
2021/01/21 16:15:43;;;;;;;0.10;0.10;;;;;;;2.93;100.00;96587.44;5020252;28;20740;-78
2021/01/21 16:18:46;;;;;;;0.10;0.10;;;;;;;2.73;100.00;96585.00;5031319;28;20052;-78
2021/01/21 16:21:50;;;;;;;0.15;0.15;;;;;;;2.52;100.00;96587.25;5031332;28;20472;-79
2021/01/21 16:24:54;;;;;;;0.20;0.20;;;;;;;2.33;100.00;96591.00;5032149;28;20060;-78
2021/01/21 16:27:58;;;;;;;0.20;0.20;;;;;;;2.17;100.00;96587.00;5032084;28;20049;-85
2021/01/21 16:31:01;;;;;;;0.20;0.20;;;;;;;2.06;100.00;96592.50;5032474;28;20068;-81
2021/01/21 16:34:04;;;;;;;0.20;0.20;;;;;;;2.03;100.00;96597.00;5032136;28;20064;-80
2021/01/21 16:37:09;;;;;;;0.20;0.20;;;;;;;2.01;100.00;96585.03;5031975;28;20053;-83
2021/01/21 16:40:13;;;;;;;0.15;0.15;;;;;;;2.03;100.00;96594.25;5031776;28;20048;-82